sensor_id;sensor_type;location;lat;lon;timestamp;P1;durP1;ratioP1;P2;durP2;ratioP2
25045;SDS011;13044;49.304;12.840;2022-09-13T00:01:08;4.82;;;3.10;;
25045;SDS011;13044;49.304;12.840;2022-09-13T00:03:35;4.93;;;3.08;;
25045;SDS011;13044;49.304;12.840;2022-09-13T00:06:21;3.88;;;3.20;;
25045;SDS011;13044;49.304;12.840;2022-09-13T00:08:48;4.97;;;3.45;;
25045;SDS011;13044;49.304;12.840;2022-09-13T00:11:16;5.55;;;3.30;;
25045;SDS011;13044;49.304;12.840;2022-09-13T00:13:52;4.57;;;3.85;;
25045;SDS011;13044;49.304;12.840;2022-09-13T00:16:21;6.07;;;4.78;;
25045;SDS011;13044;49.304;12.840;2022-09-13T00:18:50;16.77;;;4.80;;
25045;SDS011;13044;49.304;12.840;2022-09-13T00:21:19;11.68;;;4.82;;
25045;SDS011;13044;49.304;12.840;2022-09-13T00:23:48;10.52;;;3.97;;
25045;SDS011;13044;49.304;12.840;2022-09-13T00:26:19;6.88;;;4.00;;
25045;SDS011;13044;49.304;12.840;2022-09-13T00:28:49;6.28;;;3.70;;
25045;SDS011;13044;49.304;12.840;2022-09-13T00:31:19;3.67;;;3.38;;
25045;SDS011;13044;49.304;12.840;2022-09-13T00:33:48;8.13;;;4.00;;
25045;SDS011;13044;49.304;12.840;2022-09-13T00:36:16;6.97;;;3.92;;
25045;SDS011;13044;49.304;12.840;2022-09-13T00:38:43;4.18;;;3.45;;
25045;SDS011;13044;49.304;12.840;2022-09-13T00:41:12;4.25;;;3.28;;
25045;SDS011;13044;49.304;12.840;2022-09-13T00:43:50;5.28;;;3.38;;
25045;SDS011;13044;49.304;12.840;2022-09-13T00:49:11;6.53;;;3.30;;
25045;SDS011;13044;49.304;12.840;2022-09-13T00:51:45;7.40;;;3.45;;
25045;SDS011;13044;49.304;12.840;2022-09-13T00:54:21;4.20;;;3.40;;
25045;SDS011;13044;49.304;12.840;2022-09-13T00:59:26;10.10;;;3.92;;
25045;SDS011;13044;49.304;12.840;2022-09-13T01:02:00;9.23;;;4.07;;
25045;SDS011;13044;49.304;12.840;2022-09-13T01:04:29;9.38;;;4.47;;
25045;SDS011;13044;49.304;12.840;2022-09-13T01:07:01;7.15;;;4.07;;
25045;SDS011;13044;49.304;12.840;2022-09-13T01:09:36;18.08;;;4.38;;
25045;SDS011;13044;49.304;12.840;2022-09-13T01:15:13;21.30;;;4.70;;
25045;SDS011;13044;49.304;12.840;2022-09-13T01:17:40;29.58;;;4.28;;
25045;SDS011;13044;49.304;12.840;2022-09-13T01:20:09;14.32;;;4.60;;
25045;SDS011;13044;49.304;12.840;2022-09-13T01:28:47;10.60;;;4.30;;
25045;SDS011;13044;49.304;12.840;2022-09-13T01:31:36;11.27;;;3.97;;
25045;SDS011;13044;49.304;12.840;2022-09-13T01:43:06;17.77;;;4.40;;
25045;SDS011;13044;49.304;12.840;2022-09-13T01:45:53;13.32;;;4.63;;
25045;SDS011;13044;49.304;12.840;2022-09-13T01:48:34;14.05;;;3.92;;
25045;SDS011;13044;49.304;12.840;2022-09-13T01:51:25;12.80;;;4.10;;
25045;SDS011;13044;49.304;12.840;2022-09-13T01:56:42;8.90;;;4.07;;
25045;SDS011;13044;49.304;12.840;2022-09-13T01:59:45;13.63;;;3.78;;
25045;SDS011;13044;49.304;12.840;2022-09-13T02:07:53;14.75;;;4.13;;
25045;SDS011;13044;49.304;12.840;2022-09-13T02:10:31;9.40;;;3.70;;
25045;SDS011;13044;49.304;12.840;2022-09-13T02:13:04;7.65;;;3.97;;
25045;SDS011;13044;49.304;12.840;2022-09-13T02:15:38;6.97;;;3.45;;
25045;SDS011;13044;49.304;12.840;2022-09-13T02:18:12;6.75;;;3.80;;
25045;SDS011;13044;49.304;12.840;2022-09-13T02:20:50;7.97;;;3.63;;
25045;SDS011;13044;49.304;12.840;2022-09-13T02:23:25;11.93;;;4.28;;
25045;SDS011;13044;49.304;12.840;2022-09-13T02:25:59;4.50;;;3.70;;
25045;SDS011;13044;49.304;12.840;2022-09-13T02:28:35;7.22;;;3.65;;
25045;SDS011;13044;49.304;12.840;2022-09-13T02:31:07;5.68;;;3.42;;
25045;SDS011;13044;49.304;12.840;2022-09-13T02:33:42;5.68;;;3.72;;
25045;SDS011;13044;49.304;12.840;2022-09-13T02:36:23;3.72;;;3.10;;
25045;SDS011;13044;49.304;12.840;2022-09-13T02:38:55;3.28;;;2.92;;
25045;SDS011;13044;49.304;12.840;2022-09-13T02:41:30;5.03;;;3.05;;
25045;SDS011;13044;49.304;12.840;2022-09-13T02:44:29;3.22;;;2.92;;
25045;SDS011;13044;49.304;12.840;2022-09-13T02:47:07;4.90;;;3.20;;
25045;SDS011;13044;49.304;12.840;2022-09-13T02:49:56;4.75;;;3.03;;
25045;SDS011;13044;49.304;12.840;2022-09-13T02:52:47;4.50;;;2.95;;
25045;SDS011;13044;49.304;12.840;2022-09-13T03:01:49;3.38;;;3.00;;
25045;SDS011;13044;49.304;12.840;2022-09-13T03:04:24;7.05;;;2.72;;
25045;SDS011;13044;49.304;12.840;2022-09-13T03:06:52;2.80;;;2.40;;
25045;SDS011;13044;49.304;12.840;2022-09-13T03:09:19;3.83;;;3.05;;
25045;SDS011;13044;49.304;12.840;2022-09-13T03:14:32;5.20;;;2.95;;
25045;SDS011;13044;49.304;12.840;2022-09-13T03:17:43;3.17;;;2.85;;
25045;SDS011;13044;49.304;12.840;2022-09-13T03:26:25;7.50;;;3.97;;
25045;SDS011;13044;49.304;12.840;2022-09-13T03:35:29;4.60;;;3.40;;
25045;SDS011;13044;49.304;12.840;2022-09-13T03:38:15;3.65;;;2.97;;
25045;SDS011;13044;49.304;12.840;2022-09-13T03:40:59;3.97;;;3.35;;
25045;SDS011;13044;49.304;12.840;2022-09-13T03:43:36;7.35;;;3.35;;
25045;SDS011;13044;49.304;12.840;2022-09-13T03:46:14;4.95;;;3.30;;
25045;SDS011;13044;49.304;12.840;2022-09-13T03:49:05;3.72;;;3.15;;
25045;SDS011;13044;49.304;12.840;2022-09-13T03:51:35;4.85;;;3.63;;
25045;SDS011;13044;49.304;12.840;2022-09-13T03:54:05;6.53;;;4.72;;
25045;SDS011;13044;49.304;12.840;2022-09-13T03:56:40;10.85;;;6.35;;
25045;SDS011;13044;49.304;12.840;2022-09-13T03:59:07;12.43;;;5.68;;
25045;SDS011;13044;49.304;12.840;2022-09-13T04:01:33;11.77;;;6.25;;
25045;SDS011;13044;49.304;12.840;2022-09-13T04:04:00;8.75;;;5.38;;
25045;SDS011;13044;49.304;12.840;2022-09-13T04:06:27;6.70;;;4.90;;
25045;SDS011;13044;49.304;12.840;2022-09-13T04:08:54;8.40;;;5.30;;
25045;SDS011;13044;49.304;12.840;2022-09-13T04:11:21;9.27;;;4.28;;
25045;SDS011;13044;49.304;12.840;2022-09-13T04:13:48;6.20;;;3.53;;
25045;SDS011;13044;49.304;12.840;2022-09-13T04:16:15;6.63;;;3.47;;
25045;SDS011;13044;49.304;12.840;2022-09-13T04:18:42;4.70;;;3.35;;
25045;SDS011;13044;49.304;12.840;2022-09-13T04:21:09;4.07;;;3.30;;
25045;SDS011;13044;49.304;12.840;2022-09-13T04:23:36;4.32;;;3.35;;
25045;SDS011;13044;49.304;12.840;2022-09-13T04:26:03;3.53;;;3.20;;
25045;SDS011;13044;49.304;12.840;2022-09-13T04:28:31;13.27;;;4.38;;
25045;SDS011;13044;49.304;12.840;2022-09-13T04:30:57;7.78;;;3.50;;
25045;SDS011;13044;49.304;12.840;2022-09-13T04:33:24;4.85;;;3.67;;
25045;SDS011;13044;49.304;12.840;2022-09-13T04:35:57;6.43;;;3.95;;
25045;SDS011;13044;49.304;12.840;2022-09-13T04:38:25;4.50;;;3.70;;
25045;SDS011;13044;49.304;12.840;2022-09-13T04:40:55;8.10;;;3.45;;
25045;SDS011;13044;49.304;12.840;2022-09-13T04:43:23;4.97;;;3.55;;
25045;SDS011;13044;49.304;12.840;2022-09-13T04:45:50;6.22;;;4.00;;
25045;SDS011;13044;49.304;12.840;2022-09-13T04:48:17;6.70;;;4.15;;
25045;SDS011;13044;49.304;12.840;2022-09-13T04:50:44;4.97;;;3.35;;
25045;SDS011;13044;49.304;12.840;2022-09-13T04:53:10;7.22;;;4.25;;
25045;SDS011;13044;49.304;12.840;2022-09-13T04:55:38;5.82;;;3.97;;
25045;SDS011;13044;49.304;12.840;2022-09-13T04:58:05;7.25;;;4.25;;
25045;SDS011;13044;49.304;12.840;2022-09-13T05:00:32;8.50;;;4.32;;
25045;SDS011;13044;49.304;12.840;2022-09-13T05:02:59;6.55;;;4.10;;
25045;SDS011;13044;49.304;12.840;2022-09-13T05:05:26;8.52;;;4.35;;
25045;SDS011;13044;49.304;12.840;2022-09-13T05:07:54;7.40;;;4.63;;
25045;SDS011;13044;49.304;12.840;2022-09-13T05:10:21;14.90;;;5.63;;
25045;SDS011;13044;49.304;12.840;2022-09-13T05:12:48;8.57;;;4.90;;
25045;SDS011;13044;49.304;12.840;2022-09-13T05:15:15;10.55;;;6.10;;
25045;SDS011;13044;49.304;12.840;2022-09-13T05:17:42;9.77;;;5.05;;
25045;SDS011;13044;49.304;12.840;2022-09-13T05:20:08;11.25;;;6.35;;
25045;SDS011;13044;49.304;12.840;2022-09-13T05:22:36;10.20;;;6.45;;
25045;SDS011;13044;49.304;12.840;2022-09-13T05:25:03;10.55;;;5.72;;
25045;SDS011;13044;49.304;12.840;2022-09-13T05:27:30;8.15;;;6.28;;
25045;SDS011;13044;49.304;12.840;2022-09-13T05:29:57;8.70;;;6.15;;
25045;SDS011;13044;49.304;12.840;2022-09-13T05:32:24;9.35;;;6.70;;
25045;SDS011;13044;49.304;12.840;2022-09-13T05:34:51;12.95;;;6.72;;
25045;SDS011;13044;49.304;12.840;2022-09-13T05:37:17;8.93;;;6.40;;
25045;SDS011;13044;49.304;12.840;2022-09-13T05:39:44;9.00;;;6.68;;
25045;SDS011;13044;49.304;12.840;2022-09-13T05:42:31;9.43;;;7.07;;
25045;SDS011;13044;49.304;12.840;2022-09-13T05:44:58;9.50;;;6.53;;
25045;SDS011;13044;49.304;12.840;2022-09-13T05:47:24;12.23;;;7.50;;
25045;SDS011;13044;49.304;12.840;2022-09-13T05:49:51;9.23;;;6.80;;
25045;SDS011;13044;49.304;12.840;2022-09-13T05:52:36;12.15;;;7.60;;
25045;SDS011;13044;49.304;12.840;2022-09-13T05:55:02;11.77;;;6.80;;
25045;SDS011;13044;49.304;12.840;2022-09-13T05:57:30;9.65;;;7.38;;
25045;SDS011;13044;49.304;12.840;2022-09-13T05:59:59;8.15;;;6.53;;
25045;SDS011;13044;49.304;12.840;2022-09-13T06:02:26;13.02;;;6.78;;
25045;SDS011;13044;49.304;12.840;2022-09-13T06:04:53;10.05;;;6.95;;
25045;SDS011;13044;49.304;12.840;2022-09-13T06:07:20;8.20;;;6.50;;
25045;SDS011;13044;49.304;12.840;2022-09-13T06:09:47;15.30;;;6.47;;
25045;SDS011;13044;49.304;12.840;2022-09-13T06:12:14;10.07;;;6.88;;
25045;SDS011;13044;49.304;12.840;2022-09-13T06:14:41;8.60;;;6.50;;
25045;SDS011;13044;49.304;12.840;2022-09-13T06:17:08;9.32;;;6.28;;
25045;SDS011;13044;49.304;12.840;2022-09-13T06:19:34;10.50;;;6.47;;
25045;SDS011;13044;49.304;12.840;2022-09-13T06:22:01;7.47;;;6.00;;
25045;SDS011;13044;49.304;12.840;2022-09-13T06:24:28;11.82;;;6.45;;
25045;SDS011;13044;49.304;12.840;2022-09-13T06:26:55;8.85;;;6.70;;
25045;SDS011;13044;49.304;12.840;2022-09-13T06:29:23;8.30;;;6.13;;
25045;SDS011;13044;49.304;12.840;2022-09-13T06:31:50;17.27;;;6.18;;
25045;SDS011;13044;49.304;12.840;2022-09-13T06:34:16;9.75;;;6.60;;
25045;SDS011;13044;49.304;12.840;2022-09-13T06:36:43;11.15;;;6.55;;
25045;SDS011;13044;49.304;12.840;2022-09-13T06:39:10;11.32;;;6.13;;
25045;SDS011;13044;49.304;12.840;2022-09-13T06:41:37;9.60;;;6.38;;
25045;SDS011;13044;49.304;12.840;2022-09-13T06:44:04;9.07;;;6.72;;
25045;SDS011;13044;49.304;12.840;2022-09-13T06:46:32;8.88;;;6.22;;
25045;SDS011;13044;49.304;12.840;2022-09-13T06:49:01;14.65;;;7.03;;
25045;SDS011;13044;49.304;12.840;2022-09-13T06:51:31;9.07;;;6.55;;
25045;SDS011;13044;49.304;12.840;2022-09-13T06:53:59;11.32;;;6.40;;
25045;SDS011;13044;49.304;12.840;2022-09-13T06:56:27;7.88;;;6.15;;
25045;SDS011;13044;49.304;12.840;2022-09-13T06:58:59;10.18;;;6.43;;
25045;SDS011;13044;49.304;12.840;2022-09-13T07:01:34;11.13;;;6.22;;
25045;SDS011;13044;49.304;12.840;2022-09-13T07:04:07;7.80;;;6.18;;
25045;SDS011;13044;49.304;12.840;2022-09-13T07:06:38;12.43;;;6.05;;
25045;SDS011;13044;49.304;12.840;2022-09-13T07:09:09;10.18;;;5.80;;
25045;SDS011;13044;49.304;12.840;2022-09-13T07:11:39;10.10;;;6.10;;
25045;SDS011;13044;49.304;12.840;2022-09-13T07:14:07;8.65;;;6.40;;
25045;SDS011;13044;49.304;12.840;2022-09-13T07:16:38;10.25;;;6.82;;
25045;SDS011;13044;49.304;12.840;2022-09-13T07:19:07;10.85;;;5.40;;
25045;SDS011;13044;49.304;12.840;2022-09-13T07:21:45;6.95;;;5.50;;
25045;SDS011;13044;49.304;12.840;2022-09-13T07:24:13;11.30;;;6.13;;
25045;SDS011;13044;49.304;12.840;2022-09-13T07:26:41;8.18;;;5.68;;
25045;SDS011;13044;49.304;12.840;2022-09-13T07:29:10;8.82;;;5.70;;
25045;SDS011;13044;49.304;12.840;2022-09-13T07:31:45;8.55;;;5.60;;
25045;SDS011;13044;49.304;12.840;2022-09-13T07:34:24;10.45;;;6.50;;
25045;SDS011;13044;49.304;12.840;2022-09-13T07:36:51;8.18;;;5.65;;
25045;SDS011;13044;49.304;12.840;2022-09-13T07:39:19;8.93;;;6.07;;
25045;SDS011;13044;49.304;12.840;2022-09-13T07:41:48;12.13;;;6.30;;
25045;SDS011;13044;49.304;12.840;2022-09-13T07:44:16;10.30;;;6.30;;
25045;SDS011;13044;49.304;12.840;2022-09-13T07:46:43;6.25;;;5.40;;
25045;SDS011;13044;49.304;12.840;2022-09-13T07:49:15;9.15;;;5.80;;
25045;SDS011;13044;49.304;12.840;2022-09-13T07:51:44;9.50;;;5.90;;
25045;SDS011;13044;49.304;12.840;2022-09-13T07:54:12;9.57;;;5.85;;
25045;SDS011;13044;49.304;12.840;2022-09-13T07:56:41;9.00;;;5.75;;
25045;SDS011;13044;49.304;12.840;2022-09-13T07:59:12;12.57;;;6.65;;
25045;SDS011;13044;49.304;12.840;2022-09-13T08:01:42;8.60;;;6.40;;
25045;SDS011;13044;49.304;12.840;2022-09-13T08:04:16;8.77;;;6.28;;
25045;SDS011;13044;49.304;12.840;2022-09-13T08:06:46;6.95;;;5.35;;
25045;SDS011;13044;49.304;12.840;2022-09-13T08:09:13;7.78;;;5.32;;
25045;SDS011;13044;49.304;12.840;2022-09-13T08:11:45;7.22;;;4.93;;
25045;SDS011;13044;49.304;12.840;2022-09-13T08:14:17;9.38;;;5.07;;
25045;SDS011;13044;49.304;12.840;2022-09-13T08:16:46;6.43;;;4.90;;
25045;SDS011;13044;49.304;12.840;2022-09-13T08:19:17;7.57;;;5.53;;
25045;SDS011;13044;49.304;12.840;2022-09-13T08:21:44;7.28;;;5.15;;
25045;SDS011;13044;49.304;12.840;2022-09-13T08:24:13;6.80;;;5.18;;
25045;SDS011;13044;49.304;12.840;2022-09-13T08:26:46;8.25;;;5.10;;
25045;SDS011;13044;49.304;12.840;2022-09-13T08:29:13;11.95;;;5.80;;
25045;SDS011;13044;49.304;12.840;2022-09-13T08:31:41;6.68;;;5.20;;
25045;SDS011;13044;49.304;12.840;2022-09-13T08:34:09;7.95;;;5.30;;
25045;SDS011;13044;49.304;12.840;2022-09-13T08:36:39;8.65;;;5.47;;
25045;SDS011;13044;49.304;12.840;2022-09-13T08:39:06;5.90;;;5.25;;
25045;SDS011;13044;49.304;12.840;2022-09-13T08:50:21;6.85;;;5.15;;
25045;SDS011;13044;49.304;12.840;2022-09-13T09:07:15;6.32;;;4.80;;
25045;SDS011;13044;49.304;12.840;2022-09-13T09:09:52;6.25;;;4.10;;
25045;SDS011;13044;49.304;12.840;2022-09-13T09:15:21;8.05;;;4.75;;
25045;SDS011;13044;49.304;12.840;2022-09-13T09:18:09;8.23;;;5.00;;
25045;SDS011;13044;49.304;12.840;2022-09-13T09:20:50;9.65;;;4.75;;
25045;SDS011;13044;49.304;12.840;2022-09-13T09:26:17;5.75;;;4.30;;
25045;SDS011;13044;49.304;12.840;2022-09-13T09:28:58;7.53;;;4.00;;
25045;SDS011;13044;49.304;12.840;2022-09-13T09:41:13;8.65;;;4.80;;
25045;SDS011;13044;49.304;12.840;2022-09-13T09:46:50;6.97;;;4.85;;
25045;SDS011;13044;49.304;12.840;2022-09-13T09:55:33;5.90;;;4.43;;
25045;SDS011;13044;49.304;12.840;2022-09-13T09:58:35;5.65;;;4.95;;
25045;SDS011;13044;49.304;12.840;2022-09-13T10:01:24;5.57;;;4.97;;
25045;SDS011;13044;49.304;12.840;2022-09-13T10:06:30;5.20;;;4.38;;
25045;SDS011;13044;49.304;12.840;2022-09-13T10:09:00;7.93;;;3.95;;
25045;SDS011;13044;49.304;12.840;2022-09-13T10:11:38;6.28;;;4.13;;
25045;SDS011;13044;49.304;12.840;2022-09-13T10:19:53;4.90;;;3.70;;
25045;SDS011;13044;49.304;12.840;2022-09-13T10:22:29;3.95;;;2.92;;
25045;SDS011;13044;49.304;12.840;2022-09-13T10:25:14;5.30;;;3.10;;
25045;SDS011;13044;49.304;12.840;2022-09-13T10:27:52;3.60;;;3.13;;
25045;SDS011;13044;49.304;12.840;2022-09-13T10:30:27;3.83;;;3.10;;
25045;SDS011;13044;49.304;12.840;2022-09-13T10:32:57;3.30;;;2.97;;
25045;SDS011;13044;49.304;12.840;2022-09-13T10:35:25;3.78;;;3.05;;
25045;SDS011;13044;49.304;12.840;2022-09-13T10:37:53;5.10;;;3.55;;
25045;SDS011;13044;49.304;12.840;2022-09-13T10:42:53;3.30;;;2.95;;
25045;SDS011;13044;49.304;12.840;2022-09-13T10:45:26;6.75;;;3.15;;
25045;SDS011;13044;49.304;12.840;2022-09-13T10:47:58;4.95;;;2.85;;
25045;SDS011;13044;49.304;12.840;2022-09-13T10:50:35;3.38;;;3.00;;
25045;SDS011;13044;49.304;12.840;2022-09-13T10:53:02;3.92;;;3.15;;
25045;SDS011;13044;49.304;12.840;2022-09-13T10:55:31;4.22;;;3.00;;
25045;SDS011;13044;49.304;12.840;2022-09-13T11:03:46;3.95;;;2.88;;
25045;SDS011;13044;49.304;12.840;2022-09-13T11:06:34;4.25;;;2.90;;
25045;SDS011;13044;49.304;12.840;2022-09-13T11:09:13;3.85;;;3.30;;
25045;SDS011;13044;49.304;12.840;2022-09-13T11:18:12;4.57;;;3.00;;
25045;SDS011;13044;49.304;12.840;2022-09-13T11:30:18;3.67;;;2.58;;
25045;SDS011;13044;49.304;12.840;2022-09-13T11:32:58;4.82;;;2.78;;
25045;SDS011;13044;49.304;12.840;2022-09-13T11:35:48;4.40;;;2.45;;
25045;SDS011;13044;49.304;12.840;2022-09-13T11:38:53;5.40;;;2.80;;
25045;SDS011;13044;49.304;12.840;2022-09-13T11:50:34;3.33;;;2.83;;
25045;SDS011;13044;49.304;12.840;2022-09-13T11:53:53;3.15;;;2.78;;
25045;SDS011;13044;49.304;12.840;2022-09-13T11:56:07;2.80;;;2.50;;
25045;SDS011;13044;49.304;12.840;2022-09-13T11:58:46;4.43;;;2.60;;
25045;SDS011;13044;49.304;12.840;2022-09-13T12:01:25;3.45;;;2.50;;
25045;SDS011;13044;49.304;12.840;2022-09-13T12:04:07;3.85;;;2.70;;
25045;SDS011;13044;49.304;12.840;2022-09-13T12:06:46;2.83;;;2.60;;
25045;SDS011;13044;49.304;12.840;2022-09-13T12:09:28;6.43;;;2.85;;
25045;SDS011;13044;49.304;12.840;2022-09-13T12:14:41;3.05;;;2.67;;
25045;SDS011;13044;49.304;12.840;2022-09-13T12:17:38;2.42;;;2.22;;
25045;SDS011;13044;49.304;12.840;2022-09-13T12:20:18;2.60;;;2.40;;
25045;SDS011;13044;49.304;12.840;2022-09-13T12:23:02;3.63;;;2.20;;
25045;SDS011;13044;49.304;12.840;2022-09-13T12:25:37;5.00;;;2.47;;
25045;SDS011;13044;49.304;12.840;2022-09-13T12:28:58;4.75;;;2.70;;
25045;SDS011;13044;49.304;12.840;2022-09-13T12:31:33;2.63;;;2.40;;
25045;SDS011;13044;49.304;12.840;2022-09-13T12:34:00;4.15;;;2.20;;
25045;SDS011;13044;49.304;12.840;2022-09-13T12:36:40;2.85;;;2.30;;
25045;SDS011;13044;49.304;12.840;2022-09-13T12:39:30;5.38;;;2.25;;
25045;SDS011;13044;49.304;12.840;2022-09-13T12:42:25;2.55;;;2.30;;
25045;SDS011;13044;49.304;12.840;2022-09-13T12:48:16;2.30;;;2.10;;
25045;SDS011;13044;49.304;12.840;2022-09-13T13:11:07;3.10;;;2.30;;
25045;SDS011;13044;49.304;12.840;2022-09-13T13:13:41;2.72;;;2.00;;
25045;SDS011;13044;49.304;12.840;2022-09-13T13:18:59;4.18;;;2.50;;
25045;SDS011;13044;49.304;12.840;2022-09-13T13:21:51;4.03;;;2.70;;
25045;SDS011;13044;49.304;12.840;2022-09-13T13:26:47;2.85;;;2.33;;
25045;SDS011;13044;49.304;12.840;2022-09-13T13:29:21;4.50;;;2.75;;
25045;SDS011;13044;49.304;12.840;2022-09-13T13:37:00;7.35;;;2.83;;
25045;SDS011;13044;49.304;12.840;2022-09-13T13:45:13;5.15;;;2.60;;
25045;SDS011;13044;49.304;12.840;2022-09-13T13:48:12;9.45;;;2.78;;
25045;SDS011;13044;49.304;12.840;2022-09-13T13:53:45;3.53;;;2.38;;
25045;SDS011;13044;49.304;12.840;2022-09-13T13:56:28;4.15;;;2.83;;
25045;SDS011;13044;49.304;12.840;2022-09-13T14:01:35;3.50;;;3.20;;
25045;SDS011;13044;49.304;12.840;2022-09-13T14:06:56;8.30;;;2.60;;
25045;SDS011;13044;49.304;12.840;2022-09-13T14:10:05;3.53;;;2.67;;
25045;SDS011;13044;49.304;12.840;2022-09-13T14:12:51;4.40;;;2.60;;
25045;SDS011;13044;49.304;12.840;2022-09-13T14:19:18;3.60;;;3.08;;
25045;SDS011;13044;49.304;12.840;2022-09-13T14:24:44;4.97;;;2.65;;
25045;SDS011;13044;49.304;12.840;2022-09-13T14:27:21;3.55;;;3.17;;
25045;SDS011;13044;49.304;12.840;2022-09-13T14:29:55;8.27;;;3.67;;
25045;SDS011;13044;49.304;12.840;2022-09-13T14:32:26;5.93;;;2.97;;
25045;SDS011;13044;49.304;12.840;2022-09-13T14:35:05;3.53;;;2.63;;
25045;SDS011;13044;49.304;12.840;2022-09-13T14:37:49;6.32;;;3.00;;
25045;SDS011;13044;49.304;12.840;2022-09-13T14:42:45;4.18;;;3.00;;
25045;SDS011;13044;49.304;12.840;2022-09-13T14:45:21;9.00;;;3.43;;
25045;SDS011;13044;49.304;12.840;2022-09-13T14:47:57;6.10;;;2.80;;
25045;SDS011;13044;49.304;12.840;2022-09-13T14:50:42;5.70;;;3.00;;
25045;SDS011;13044;49.304;12.840;2022-09-13T14:53:23;7.43;;;4.90;;
25045;SDS011;13044;49.304;12.840;2022-09-13T14:56:00;3.95;;;3.55;;
25045;SDS011;13044;49.304;12.840;2022-09-13T14:58:37;9.50;;;3.40;;
25045;SDS011;13044;49.304;12.840;2022-09-13T15:01:33;12.60;;;3.63;;
25045;SDS011;13044;49.304;12.840;2022-09-13T15:04:02;7.03;;;3.95;;
25045;SDS011;13044;49.304;12.840;2022-09-13T15:06:32;4.75;;;3.42;;
25045;SDS011;13044;49.304;12.840;2022-09-13T15:19:47;5.47;;;3.30;;
25045;SDS011;13044;49.304;12.840;2022-09-13T15:22:21;5.32;;;3.50;;
25045;SDS011;13044;49.304;12.840;2022-09-13T15:24:55;3.30;;;3.00;;
25045;SDS011;13044;49.304;12.840;2022-09-13T15:27:25;6.38;;;3.60;;
25045;SDS011;13044;49.304;12.840;2022-09-13T15:30:21;5.57;;;3.55;;
25045;SDS011;13044;49.304;12.840;2022-09-13T15:35:45;5.93;;;3.60;;
25045;SDS011;13044;49.304;12.840;2022-09-13T15:41:15;8.30;;;3.85;;
25045;SDS011;13044;49.304;12.840;2022-09-13T15:43:47;3.95;;;3.35;;
25045;SDS011;13044;49.304;12.840;2022-09-13T15:46:14;5.70;;;3.40;;
25045;SDS011;13044;49.304;12.840;2022-09-13T15:48:43;4.65;;;3.75;;
25045;SDS011;13044;49.304;12.840;2022-09-13T15:51:18;5.40;;;2.85;;
25045;SDS011;13044;49.304;12.840;2022-09-13T15:53:45;4.10;;;3.58;;
25045;SDS011;13044;49.304;12.840;2022-09-13T15:56:17;11.80;;;4.00;;
25045;SDS011;13044;49.304;12.840;2022-09-13T15:58:46;5.72;;;3.13;;
25045;SDS011;13044;49.304;12.840;2022-09-13T16:01:14;10.10;;;3.65;;
25045;SDS011;13044;49.304;12.840;2022-09-13T16:03:42;7.38;;;3.45;;
25045;SDS011;13044;49.304;12.840;2022-09-13T16:06:10;4.55;;;3.45;;
25045;SDS011;13044;49.304;12.840;2022-09-13T16:08:37;7.70;;;3.55;;
25045;SDS011;13044;49.304;12.840;2022-09-13T16:11:06;4.53;;;3.08;;
25045;SDS011;13044;49.304;12.840;2022-09-13T16:13:36;6.25;;;3.30;;
25045;SDS011;13044;49.304;12.840;2022-09-13T16:16:03;7.22;;;3.78;;
25045;SDS011;13044;49.304;12.840;2022-09-13T16:18:31;5.05;;;3.95;;
25045;SDS011;13044;49.304;12.840;2022-09-13T16:20:58;8.65;;;3.90;;
25045;SDS011;13044;49.304;12.840;2022-09-13T16:23:25;5.93;;;3.90;;
25045;SDS011;13044;49.304;12.840;2022-09-13T16:25:54;9.02;;;3.95;;
25045;SDS011;13044;49.304;12.840;2022-09-13T16:28:23;4.22;;;3.35;;
25045;SDS011;13044;49.304;12.840;2022-09-13T16:30:50;8.45;;;3.78;;
25045;SDS011;13044;49.304;12.840;2022-09-13T16:33:19;4.20;;;3.80;;
25045;SDS011;13044;49.304;12.840;2022-09-13T16:35:46;7.20;;;3.70;;
25045;SDS011;13044;49.304;12.840;2022-09-13T16:38:17;6.95;;;4.03;;
25045;SDS011;13044;49.304;12.840;2022-09-13T16:40:44;7.97;;;5.38;;
25045;SDS011;13044;49.304;12.840;2022-09-13T16:43:11;5.82;;;4.38;;
25045;SDS011;13044;49.304;12.840;2022-09-13T16:45:39;6.60;;;5.03;;
25045;SDS011;13044;49.304;12.840;2022-09-13T16:48:07;6.07;;;5.15;;
25045;SDS011;13044;49.304;12.840;2022-09-13T16:50:34;6.57;;;4.43;;
25045;SDS011;13044;49.304;12.840;2022-09-13T16:53:04;10.57;;;4.55;;
25045;SDS011;13044;49.304;12.840;2022-09-13T16:55:31;6.13;;;4.43;;
25045;SDS011;13044;49.304;12.840;2022-09-13T16:57:58;7.20;;;4.80;;
25045;SDS011;13044;49.304;12.840;2022-09-13T17:00:25;5.43;;;4.63;;
25045;SDS011;13044;49.304;12.840;2022-09-13T17:02:54;6.68;;;4.50;;
25045;SDS011;13044;49.304;12.840;2022-09-13T17:05:22;4.63;;;4.22;;
25045;SDS011;13044;49.304;12.840;2022-09-13T17:07:49;8.13;;;4.45;;
25045;SDS011;13044;49.304;12.840;2022-09-13T17:10:17;7.75;;;4.82;;
25045;SDS011;13044;49.304;12.840;2022-09-13T17:12:45;13.32;;;4.18;;
25045;SDS011;13044;49.304;12.840;2022-09-13T17:15:13;9.13;;;4.75;;
25045;SDS011;13044;49.304;12.840;2022-09-13T17:17:40;9.02;;;4.05;;
25045;SDS011;13044;49.304;12.840;2022-09-13T17:20:08;8.00;;;4.53;;
25045;SDS011;13044;49.304;12.840;2022-09-13T17:22:37;6.45;;;4.15;;
25045;SDS011;13044;49.304;12.840;2022-09-13T17:25:05;8.43;;;4.60;;
25045;SDS011;13044;49.304;12.840;2022-09-13T17:27:33;8.95;;;4.45;;
25045;SDS011;13044;49.304;12.840;2022-09-13T17:30:00;10.35;;;4.78;;
25045;SDS011;13044;49.304;12.840;2022-09-13T17:32:30;10.23;;;4.38;;
25045;SDS011;13044;49.304;12.840;2022-09-13T17:34:56;6.75;;;4.47;;
25045;SDS011;13044;49.304;12.840;2022-09-13T17:37:24;10.35;;;4.78;;
25045;SDS011;13044;49.304;12.840;2022-09-13T17:39:50;6.55;;;4.25;;
25045;SDS011;13044;49.304;12.840;2022-09-13T17:42:17;10.48;;;4.30;;
25045;SDS011;13044;49.304;12.840;2022-09-13T17:44:48;7.90;;;3.83;;
25045;SDS011;13044;49.304;12.840;2022-09-13T17:47:15;9.10;;;3.85;;
25045;SDS011;13044;49.304;12.840;2022-09-13T17:49:42;5.38;;;4.30;;
25045;SDS011;13044;49.304;12.840;2022-09-13T17:52:10;8.07;;;4.60;;
25045;SDS011;13044;49.304;12.840;2022-09-13T17:54:37;7.13;;;3.88;;
25045;SDS011;13044;49.304;12.840;2022-09-13T17:57:04;5.35;;;4.22;;
25045;SDS011;13044;49.304;12.840;2022-09-13T17:59:31;5.22;;;4.18;;
25045;SDS011;13044;49.304;12.840;2022-09-13T18:01:59;8.63;;;4.68;;
25045;SDS011;13044;49.304;12.840;2022-09-13T18:04:26;10.25;;;4.30;;
25045;SDS011;13044;49.304;12.840;2022-09-13T18:06:53;7.75;;;4.57;;
25045;SDS011;13044;49.304;12.840;2022-09-13T18:09:20;7.35;;;4.25;;
25045;SDS011;13044;49.304;12.840;2022-09-13T18:11:48;6.18;;;4.82;;
25045;SDS011;13044;49.304;12.840;2022-09-13T18:14:16;9.25;;;4.75;;
25045;SDS011;13044;49.304;12.840;2022-09-13T18:16:44;9.18;;;4.85;;
25045;SDS011;13044;49.304;12.840;2022-09-13T18:19:12;9.02;;;4.70;;
25045;SDS011;13044;49.304;12.840;2022-09-13T18:21:39;7.47;;;4.47;;
25045;SDS011;13044;49.304;12.840;2022-09-13T18:24:06;5.35;;;4.28;;
25045;SDS011;13044;49.304;12.840;2022-09-13T18:26:34;11.32;;;4.55;;
25045;SDS011;13044;49.304;12.840;2022-09-13T18:29:06;7.53;;;4.95;;
25045;SDS011;13044;49.304;12.840;2022-09-13T18:31:37;11.60;;;5.32;;
25045;SDS011;13044;49.304;12.840;2022-09-13T18:34:07;9.82;;;4.80;;
25045;SDS011;13044;49.304;12.840;2022-09-13T18:36:37;8.65;;;4.57;;
25045;SDS011;13044;49.304;12.840;2022-09-13T18:39:06;7.75;;;4.88;;
25045;SDS011;13044;49.304;12.840;2022-09-13T18:41:40;6.03;;;4.38;;